Time;durP1;ratioP1;P1;durP2;ratioP2;P2;SDS_P1;SDS_P2;PMS_P1;PMS_P2;Temp;Humidity;BMP_temperature;BMP_pressure;BME280_temperature;BME280_humidity;BME280_pressure;Samples;Min_cycle;Max_cycle;Signal;HPM_P1;HPM_P2
2023/12/26 00:00:56;;;;;;;2.85;0.90;;;;;;;10.71;87.29;100251.13;7393535;19;20075;-67
2023/12/26 00:03:24;;;;;;;3.42;0.80;;;;;;;10.68;87.18;100237.31;7393176;19;20018;-67
2023/12/26 00:05:52;;;;;;;4.57;1.20;;;;;;;10.71;86.98;100240.53;7393679;19;20035;-68
2023/12/26 00:08:20;;;;;;;3.33;1.30;;;;;;;10.69;87.20;100231.06;7391447;19;20363;-69
2023/12/26 00:10:48;;;;;;;3.22;0.90;;;;;;;10.71;87.30;100231.75;7393266;19;20018;-68
2023/12/26 00:13:16;;;;;;;3.75;1.00;;;;;;;10.73;87.14;100232.50;7391228;19;20027;-68
2023/12/26 00:15:44;;;;;;;4.30;0.90;;;;;;;10.69;87.35;100229.25;7390646;19;20122;-68
2023/12/26 00:18:12;;;;;;;2.25;0.82;;;;;;;10.71;87.52;100224.66;7393816;19;20118;-68
2023/12/26 00:20:43;;;;;;;3.58;1.08;;;;;;;10.71;87.32;100226.47;7393754;19;20011;-68
2023/12/26 00:23:11;;;;;;;4.13;0.90;;;;;;;10.70;87.50;100220.34;7393894;19;20373;-68
2023/12/26 00:25:39;;;;;;;3.97;1.00;;;;;;;10.74;87.29;100218.28;7393949;19;20023;-68
2023/12/26 00:28:06;;;;;;;2.92;0.90;;;;;;;10.70;87.53;100214.19;7393295;19;20015;-68
2023/12/26 00:30:34;;;;;;;4.03;1.10;;;;;;;10.63;87.84;100218.31;7393157;19;20022;-68
2023/12/26 00:33:03;;;;;;;3.45;0.80;;;;;;;10.57;87.87;100209.09;7393315;19;20090;-68
2023/12/26 00:35:31;;;;;;;5.07;1.00;;;;;;;10.68;88.08;100208.19;7393256;19;20031;-68
2023/12/26 00:38:01;;;;;;;1.30;0.68;;;;;;;10.72;87.54;100213.13;7397444;19;20079;-68
2023/12/26 00:40:29;;;;;;;1.90;0.93;;;;;;;10.72;87.62;100209.59;7389694;19;20027;-68
2023/12/26 00:42:57;;;;;;;0.82;0.50;;;;;;;10.69;87.10;100210.72;7392952;19;20099;-68
2023/12/26 00:45:25;;;;;;;0.90;0.65;;;;;;;10.73;87.26;100206.84;7392239;19;20332;-69
2023/12/26 00:47:53;;;;;;;1.67;0.70;;;;;;;10.78;87.25;100201.16;7392365;19;20014;-68
2023/12/26 00:50:21;;;;;;;0.50;0.38;;;;;;;10.78;87.22;100202.97;7387901;19;20078;-68
2023/12/26 00:52:50;;;;;;;3.13;0.60;;;;;;;10.79;87.45;100202.00;7392311;19;20019;-69
2023/12/26 00:55:17;;;;;;;1.27;0.60;;;;;;;10.71;87.54;100210.56;7390382;19;20026;-69
2023/12/26 00:57:45;;;;;;;1.55;0.50;;;;;;;10.62;87.58;100200.75;7392483;19;20046;-68
2023/12/26 01:00:14;;;;;;;1.45;0.50;;;;;;;10.67;87.52;100209.16;7389030;19;20018;-67
2023/12/26 01:02:42;;;;;;;2.22;0.80;;;;;;;10.72;87.49;100205.16;7392376;19;20029;-68
2023/12/26 01:05:10;;;;;;;1.70;0.75;;;;;;;10.69;87.62;100201.94;7392654;19;20022;-68
2023/12/26 01:07:38;;;;;;;1.23;0.40;;;;;;;10.70;87.52;100206.25;7392804;19;20018;-69
2023/12/26 01:10:07;;;;;;;1.02;0.40;;;;;;;10.66;87.55;100208.31;7389039;19;20018;-68
2023/12/26 01:12:35;;;;;;;2.13;0.60;;;;;;;10.68;87.65;100205.53;7392266;19;20089;-68
2023/12/26 01:15:03;;;;;;;1.52;0.40;;;;;;;10.70;87.53;100196.50;7387115;19;20022;-68
2023/12/26 01:17:31;;;;;;;1.92;0.60;;;;;;;10.78;87.14;100197.66;7391594;19;20022;-68
2023/12/26 01:19:59;;;;;;;1.85;0.40;;;;;;;10.73;87.28;100187.47;7389713;19;20018;-68
2023/12/26 01:22:29;;;;;;;0.65;0.40;;;;;;;10.73;86.87;100185.66;7390597;19;20039;-68
2023/12/26 01:24:56;;;;;;;0.93;0.40;;;;;;;10.68;87.19;100182.56;7389780;19;20018;-67
2023/12/26 01:27:24;;;;;;;1.52;0.50;;;;;;;10.65;87.23;100181.97;7390143;19;20015;-67
2023/12/26 01:29:52;;;;;;;1.75;0.47;;;;;;;10.70;86.69;100195.66;7388571;19;20046;-68
2023/12/26 01:32:20;;;;;;;1.15;0.40;;;;;;;10.67;86.74;100169.44;7390835;19;20576;-68
2023/12/26 01:34:49;;;;;;;0.40;0.30;;;;;;;10.71;86.77;100165.56;7389418;19;20101;-68
2023/12/26 01:37:16;;;;;;;0.73;0.20;;;;;;;10.64;86.96;100159.09;7391276;19;20018;-68
2023/12/26 01:39:44;;;;;;;1.65;0.40;;;;;;;10.66;86.99;100159.81;7388561;19;20489;-68
2023/12/26 01:42:13;;;;;;;1.50;0.32;;;;;;;10.63;87.04;100165.38;7390935;19;20368;-68
2023/12/26 01:44:41;;;;;;;0.65;0.38;;;;;;;10.64;86.97;100156.44;7390936;19;20054;-67
2023/12/26 01:47:11;;;;;;;0.45;0.20;;;;;;;10.68;86.59;100174.63;7391016;19;20015;-68
2023/12/26 01:49:40;;;;;;;0.82;0.40;;;;;;;10.57;86.82;100171.16;7388712;19;20019;-68
2023/12/26 01:52:09;;;;;;;1.38;0.40;;;;;;;10.58;86.83;100178.16;7390390;19;20037;-68
2023/12/26 01:54:38;;;;;;;1.85;0.30;;;;;;;10.63;86.64;100171.50;7389412;19;20344;-68
2023/12/26 01:57:07;;;;;;;1.10;0.40;;;;;;;10.68;86.41;100161.38;7390506;19;20026;-68
2023/12/26 01:59:36;;;;;;;0.60;0.40;;;;;;;10.72;86.27;100172.53;7388286;19;20014;-68
2023/12/26 02:02:05;;;;;;;0.60;0.30;;;;;;;10.68;86.26;100160.50;7390082;19;20023;-69
2023/12/26 02:04:33;;;;;;;1.58;0.47;;;;;;;10.66;86.34;100167.75;7390449;19;20023;-69
2023/12/26 02:07:02;;;;;;;1.30;0.32;;;;;;;10.60;86.39;100157.66;7390395;19;20022;-69
2023/12/26 02:09:30;;;;;;;2.65;0.40;;;;;;;10.63;86.63;100157.41;7388368;19;20006;-68
2023/12/26 02:11:58;;;;;;;0.40;0.20;;;;;;;10.68;86.17;100160.50;7390473;19;20019;-68
2023/12/26 02:14:27;;;;;;;1.42;0.20;;;;;;;10.66;85.98;100168.59;7388944;19;20022;-69
2023/12/26 02:16:55;;;;;;;1.15;0.30;;;;;;;10.61;86.18;100162.84;7389745;19;20090;-68
2023/12/26 02:19:24;;;;;;;0.47;0.15;;;;;;;10.63;86.32;100175.94;7387902;19;20029;-68
2023/12/26 02:21:52;;;;;;;0.30;0.20;;;;;;;10.58;86.58;100168.41;7388069;19;20361;-68
2023/12/26 02:24:20;;;;;;;0.82;0.22;;;;;;;10.61;86.02;100165.50;7390307;19;20014;-68
2023/12/26 02:26:54;;;;;;;1.30;0.20;;;;;;;10.64;86.23;100169.69;7390070;19;20014;-68
2023/12/26 02:29:23;;;;;;;0.98;0.30;;;;;;;10.63;86.29;100171.50;7385472;19;20014;-68
2023/12/26 02:31:54;;;;;;;1.77;0.30;;;;;;;10.57;86.79;100181.75;7388921;19;20397;-68
2023/12/26 02:34:23;;;;;;;1.13;0.20;;;;;;;10.61;86.86;100173.44;7388157;19;20014;-68
2023/12/26 02:36:51;;;;;;;1.85;0.30;;;;;;;10.62;86.67;100179.56;7388739;19;20799;-68
2023/12/26 02:39:19;;;;;;;0.90;0.30;;;;;;;10.67;86.51;100190.63;7386860;19;20014;-68
2023/12/26 02:41:46;;;;;;;1.50;0.30;;;;;;;10.65;86.70;100181.97;7387292;19;20014;-68
2023/12/26 02:44:14;;;;;;;0.60;0.20;;;;;;;10.59;87.28;100180.66;7388904;19;20018;-68
2023/12/26 02:46:42;;;;;;;0.70;0.10;;;;;;;10.61;87.00;100188.50;7388256;19;20010;-68
2023/12/26 02:49:10;;;;;;;0.70;0.30;;;;;;;10.65;87.08;100192.56;7386829;19;20026;-68
2023/12/26 02:51:38;;;;;;;0.57;0.15;;;;;;;10.67;87.04;100190.63;7388403;19;20034;-68
2023/12/26 02:54:06;;;;;;;1.95;0.20;;;;;;;10.68;87.17;100194.94;7387699;19;20193;-68
2023/12/26 02:56:34;;;;;;;2.13;0.20;;;;;;;10.64;87.67;100191.69;7387255;19;20027;-68
2023/12/26 02:59:02;;;;;;;0.38;0.17;;;;;;;10.69;87.02;100201.94;7387049;19;20035;-68
2023/12/26 03:01:30;;;;;;;0.68;0.35;;;;;;;10.68;87.31;100205.53;7386865;19;20038;-69
2023/12/26 03:03:57;;;;;;;0.73;0.25;;;;;;;10.68;87.45;100198.44;7387748;19;20130;-68
2023/12/26 03:06:25;;;;;;;0.20;0.20;;;;;;;10.71;87.39;100171.69;7387585;19;20022;-68
2023/12/26 03:08:53;;;;;;;0.52;0.17;;;;;;;10.67;87.86;100201.22;7387072;19;20099;-68
2023/12/26 03:11:21;;;;;;;1.25;0.20;;;;;;;10.63;88.15;100205.91;7387977;19;20014;-68
2023/12/26 03:13:49;;;;;;;0.95;0.20;;;;;;;10.70;88.09;100207.09;7388068;19;20023;-67
2023/12/26 03:16:17;;;;;;;1.40;0.30;;;;;;;10.72;88.20;100210.47;7386230;19;20022;-68
2023/12/26 03:18:45;;;;;;;1.85;0.20;;;;;;;10.70;88.30;100214.19;7386933;19;20019;-68
2023/12/26 03:21:13;;;;;;;0.93;0.30;;;;;;;10.72;87.92;100220.19;7387129;19;20115;-67
2023/12/26 03:23:41;;;;;;;0.45;0.30;;;;;;;10.70;87.86;100233.56;7387508;19;20025;-67
2023/12/26 03:26:09;;;;;;;0.90;0.30;;;;;;;10.71;87.64;100224.66;7387644;19;20053;-68
2023/12/26 03:28:37;;;;;;;0.90;0.50;;;;;;;10.70;87.44;100228.28;7386243;19;20386;-68
2023/12/26 03:31:08;;;;;;;2.92;0.50;;;;;;;10.65;87.29;100225.19;7388183;19;20018;-68
2023/12/26 03:33:39;;;;;;;0.65;0.20;;;;;;;10.65;87.33;100229.63;7389281;19;20043;-68
2023/12/26 03:36:08;;;;;;;2.78;0.50;;;;;;;10.66;87.29;100216.25;7392692;19;20468;-68
2023/12/26 03:38:36;;;;;;;3.65;0.60;;;;;;;10.53;87.56;100223.53;7393545;19;20932;-68
2023/12/26 03:41:04;;;;;;;1.70;0.40;;;;;;;10.56;87.55;100225.09;7395116;19;20043;-68
2023/12/26 03:43:32;;;;;;;2.15;0.50;;;;;;;10.59;87.50;100224.84;7394362;19;20014;-68
2023/12/26 03:46:00;;;;;;;2.22;0.47;;;;;;;10.65;86.96;100224.34;7394624;19;20331;-68
2023/12/26 03:48:28;;;;;;;1.35;0.40;;;;;;;10.70;87.03;100252.09;7393604;19;20021;-68
2023/12/26 03:50:57;;;;;;;2.08;0.47;;;;;;;10.68;86.81;100251.41;7394943;19;20517;-68
2023/12/26 03:53:24;;;;;;;1.85;0.50;;;;;;;10.67;86.85;100256.81;7393069;19;20027;-68
2023/12/26 03:55:52;;;;;;;2.63;0.50;;;;;;;10.68;86.66;100253.19;7393233;19;20131;-68
2023/12/26 03:58:20;;;;;;;2.03;0.50;;;;;;;10.71;86.51;100253.78;7393981;19;20018;-68
2023/12/26 04:00:48;;;;;;;4.80;0.60;;;;;;;10.65;86.81;100261.41;7394484;19;20102;-68
2023/12/26 04:03:16;;;;;;;4.68;0.60;;;;;;;10.65;86.70;100267.53;7395180;19;20030;-68
2023/12/26 04:05:44;;;;;;;3.72;0.50;;;;;;;10.70;86.42;100265.34;7394396;19;20019;-68
2023/12/26 04:08:12;;;;;;;3.08;0.45;;;;;;;10.77;86.35;100268.34;7394059;19;20039;-68
2023/12/26 04:10:40;;;;;;;2.90;0.52;;;;;;;10.74;86.15;100265.94;7394666;19;20018;-68
2023/12/26 04:13:08;;;;;;;1.63;0.43;;;;;;;10.72;86.18;100263.44;7394675;19;20031;-68
2023/12/26 04:15:36;;;;;;;1.80;0.60;;;;;;;10.64;86.28;100271.13;7392578;19;20075;-68
2023/12/26 04:18:04;;;;;;;4.38;0.80;;;;;;;10.68;86.10;100277.91;7393585;19;20049;-68
2023/12/26 04:20:32;;;;;;;4.95;0.90;;;;;;;10.75;85.89;100278.22;7391202;19;20015;-68
2023/12/26 04:23:00;;;;;;;2.97;0.70;;;;;;;10.71;85.78;100282.91;7393399;19;20018;-68
2023/12/26 04:25:29;;;;;;;4.55;0.95;;;;;;;10.72;85.64;100279.31;7389097;19;20191;-68
2023/12/26 04:27:57;;;;;;;7.13;1.00;;;;;;;10.66;85.04;100286.91;7390828;19;20019;-68
2023/12/26 04:30:25;;;;;;;4.00;1.00;;;;;;;10.59;85.11;100293.69;7389149;19;20043;-68
2023/12/26 04:32:53;;;;;;;5.28;1.52;;;;;;;10.59;84.46;100298.97;7391655;19;20018;-68
2023/12/26 04:35:22;;;;;;;6.15;1.33;;;;;;;10.62;84.09;100309.31;7389860;19;20341;-68
2023/12/26 04:37:50;;;;;;;5.82;1.10;;;;;;;10.60;83.96;100308.59;7391388;19;20014;-68
2023/12/26 04:40:18;;;;;;;6.10;1.30;;;;;;;10.59;82.89;100318.34;7390289;19;20038;-68
2023/12/26 04:42:46;;;;;;;11.05;2.00;;;;;;;10.68;81.84;100316.75;7393959;19;20018;-68
2023/12/26 04:45:14;;;;;;;11.73;1.85;;;;;;;10.66;81.42;100322.19;7392736;19;20022;-68
2023/12/26 04:47:42;;;;;;;6.10;1.60;;;;;;;10.69;81.03;100332.53;7393380;19;20022;-68
2023/12/26 04:50:10;;;;;;;6.95;1.40;;;;;;;10.68;81.28;100340.59;7389787;19;20348;-68
2023/12/26 04:52:38;;;;;;;9.30;1.67;;;;;;;10.66;81.41;100339.88;7391681;19;20352;-68
2023/12/26 04:55:06;;;;;;;8.35;1.40;;;;;;;10.70;81.39;100344.78;7391845;19;20057;-68
2023/12/26 04:57:34;;;;;;;9.02;1.50;;;;;;;10.68;81.11;100348.53;7393263;19;20011;-68
2023/12/26 05:00:02;;;;;;;8.35;1.60;;;;;;;10.70;80.89;100359.84;7389526;19;20038;-68
2023/12/26 05:02:30;;;;;;;11.57;1.52;;;;;;;10.61;80.54;100361.44;7392065;19;20026;-68
2023/12/26 05:04:58;;;;;;;9.18;1.90;;;;;;;10.53;80.25;100363.88;7391973;19;20021;-68
2023/12/26 05:07:25;;;;;;;9.20;1.48;;;;;;;10.55;80.10;100369.88;7389721;19;20018;-68
2023/12/26 05:09:53;;;;;;;10.50;1.70;;;;;;;10.55;79.69;100361.09;7389839;19;20030;-68
2023/12/26 05:12:21;;;;;;;10.30;1.48;;;;;;;10.59;78.93;100351.94;7392018;19;20536;-68
2023/12/26 05:14:49;;;;;;;11.15;1.65;;;;;;;10.58;77.55;100358.19;7391161;19;20551;-68
2023/12/26 05:17:18;;;;;;;7.00;1.30;;;;;;;10.51;77.52;100379.00;7392306;19;20025;-69
2023/12/26 05:19:46;;;;;;;7.35;1.73;;;;;;;10.49;77.51;100376.50;7388208;19;20038;-69
2023/12/26 05:22:14;;;;;;;12.40;2.00;;;;;;;10.49;77.59;100379.16;7392263;19;20355;-68
2023/12/26 05:24:42;;;;;;;7.65;1.50;;;;;;;10.47;77.39;100367.81;7392135;19;20030;-68
2023/12/26 05:27:18;;;;;;;11.10;1.80;;;;;;;10.48;77.67;100377.44;7391629;19;20022;-69
2023/12/26 05:29:46;;;;;;;9.48;1.83;;;;;;;10.39;77.52;100382.63;7389575;19;20039;-69
2023/12/26 05:32:14;;;;;;;8.95;1.92;;;;;;;10.33;76.86;100393.69;7390876;19;20098;-69
2023/12/26 05:34:44;;;;;;;10.55;1.60;;;;;;;10.37;75.94;100405.72;7388944;19;20022;-69
2023/12/26 05:37:12;;;;;;;9.13;1.83;;;;;;;10.33;76.56;100402.47;7389650;19;20015;-69
2023/12/26 05:39:43;;;;;;;10.95;1.88;;;;;;;10.30;76.57;100400.06;7389241;19;20033;-69
2023/12/26 05:42:10;;;;;;;16.05;1.92;;;;;;;10.22;76.55;100397.16;7391717;19;20486;-69
2023/12/26 05:44:39;;;;;;;11.00;1.73;;;;;;;10.19;76.88;100406.19;7391429;19;20528;-69
2023/12/26 05:47:07;;;;;;;7.82;1.60;;;;;;;10.24;76.49;100419.06;7390814;19;20021;-69
2023/12/26 05:49:35;;;;;;;10.82;1.48;;;;;;;10.20;75.12;100413.16;7387217;19;20029;-69
2023/12/26 05:52:03;;;;;;;12.20;1.73;;;;;;;10.16;75.35;100419.66;7390093;19;20018;-69
2023/12/26 05:54:31;;;;;;;5.90;1.10;;;;;;;10.14;75.49;100426.84;7390484;19;20019;-69
2023/12/26 05:56:59;;;;;;;8.18;1.73;;;;;;;10.17;74.99;100436.38;7386502;19;20019;-69
2023/12/26 05:59:27;;;;;;;9.25;1.42;;;;;;;10.15;74.34;100443.56;7388298;19;20022;-69
2023/12/26 06:01:55;;;;;;;7.07;1.50;;;;;;;10.09;74.08;100452.00;7389457;19;20019;-69
2023/12/26 06:04:23;;;;;;;10.57;1.70;;;;;;;10.05;73.33;100464.59;7390388;19;20035;-69
2023/12/26 06:06:51;;;;;;;11.57;1.70;;;;;;;9.86;72.12;100474.91;7390100;19;20019;-69
2023/12/26 06:09:26;;;;;;;8.65;1.70;;;;;;;9.86;71.63;100483.66;7388754;19;20011;-69
2023/12/26 06:11:54;;;;;;;12.43;1.65;;;;;;;9.86;71.83;100499.53;7389673;19;20010;-69
2023/12/26 06:14:24;;;;;;;15.55;2.28;;;;;;;9.82;71.61;100505.19;7389523;19;20018;-69
2023/12/26 06:16:52;;;;;;;9.43;2.08;;;;;;;9.75;71.63;100507.44;7388115;19;20041;-69
2023/12/26 06:19:20;;;;;;;10.68;2.20;;;;;;;9.74;71.57;100506.59;7386037;19;20352;-69
2023/12/26 06:21:48;;;;;;;10.30;1.80;;;;;;;9.81;72.13;100528.13;7389373;19;20027;-69
2023/12/26 06:24:15;;;;;;;15.55;2.45;;;;;;;9.83;72.35;100518.28;7388235;19;20350;-69
2023/12/26 06:26:43;;;;;;;10.50;2.15;;;;;;;9.81;71.86;100522.00;7389710;19;20129;-69
2023/12/26 06:29:11;;;;;;;13.07;2.20;;;;;;;9.81;71.85;100520.19;7388651;19;20359;-69
2023/12/26 06:31:39;;;;;;;11.23;1.98;;;;;;;9.84;72.00;100524.41;7389128;19;20018;-69
2023/12/26 06:34:07;;;;;;;11.70;1.98;;;;;;;9.82;72.23;100540.41;7389331;19;20154;-69
2023/12/26 06:36:35;;;;;;;10.25;1.88;;;;;;;9.89;71.73;100536.34;7387795;19;20022;-69
2023/12/26 06:39:03;;;;;;;13.50;2.13;;;;;;;9.91;71.43;100537.06;7387810;19;20361;-69
2023/12/26 06:41:31;;;;;;;17.58;2.50;;;;;;;9.88;71.76;100539.94;7387468;19;20014;-69
2023/12/26 06:43:59;;;;;;;12.35;2.38;;;;;;;9.92;71.74;100540.53;7388838;19;20015;-69
2023/12/26 06:46:27;;;;;;;11.15;2.05;;;;;;;9.89;72.18;100551.38;7387540;19;20361;-69
2023/12/26 06:48:55;;;;;;;11.70;2.10;;;;;;;9.91;71.97;100558.22;7386870;19;20039;-69
2023/12/26 06:51:23;;;;;;;14.75;2.30;;;;;;;9.96;71.94;100557.91;7388471;19;20015;-69
2023/12/26 06:53:51;;;;;;;11.07;1.88;;;;;;;9.84;72.04;100551.69;7389191;19;20376;-69
2023/12/26 06:56:19;;;;;;;10.38;1.70;;;;;;;9.93;72.13;100561.59;7387403;19;20520;-69
2023/12/26 06:58:47;;;;;;;15.35;2.33;;;;;;;9.94;72.04;100562.44;7387323;19;20026;-69
2023/12/26 07:01:15;;;;;;;12.30;2.33;;;;;;;9.95;72.13;100564.97;7388976;19;20014;-69
2023/12/26 07:03:43;;;;;;;12.15;2.25;;;;;;;9.87;72.17;100564.69;7388707;19;20022;-69
2023/12/26 07:06:12;;;;;;;14.10;2.35;;;;;;;9.85;72.48;100561.34;7388647;19;20348;-69
2023/12/26 07:08:39;;;;;;;13.55;2.13;;;;;;;9.84;72.06;100572.00;7387378;19;20114;-71
2023/12/26 07:11:08;;;;;;;14.70;2.45;;;;;;;9.91;72.46;100586.47;7388892;19;20014;-69
2023/12/26 07:13:35;;;;;;;11.40;1.90;;;;;;;9.87;72.43;100599.06;7387300;19;20026;-69
2023/12/26 07:16:03;;;;;;;12.18;2.05;;;;;;;9.85;71.93;100589.59;7387768;19;20034;-69
2023/12/26 07:18:31;;;;;;;14.48;2.03;;;;;;;9.86;72.64;100607.13;7385232;19;20022;-69
2023/12/26 07:20:59;;;;;;;12.82;1.98;;;;;;;9.93;71.96;100581.94;7388375;19;20036;-66
2023/12/26 07:23:27;;;;;;;13.07;2.53;;;;;;;9.98;72.10;100593.84;7387570;19;20019;-68
2023/12/26 07:25:55;;;;;;;15.02;2.20;;;;;;;9.97;71.85;100593.97;7388794;19;20025;-68
2023/12/26 07:28:23;;;;;;;8.48;1.60;;;;;;;9.98;71.98;100607.06;7386269;19;20050;-68
2023/12/26 07:30:51;;;;;;;8.05;1.77;;;;;;;9.99;72.05;100608.75;7387384;19;20766;-68
2023/12/26 07:33:19;;;;;;;11.45;1.83;;;;;;;9.97;71.89;100610.69;7386081;19;20015;-68
2023/12/26 07:35:47;;;;;;;12.95;2.03;;;;;;;9.92;71.58;100623.41;7385256;19;20015;-68
2023/12/26 07:38:16;;;;;;;10.20;1.77;;;;;;;9.88;71.69;100621.94;7386729;19;20538;-68
2023/12/26 07:40:44;;;;;;;10.63;2.05;;;;;;;9.94;71.59;100626.75;7387749;19;20042;-68
2023/12/26 07:43:12;;;;;;;11.27;2.03;;;;;;;9.94;71.64;100634.69;7386737;19;20021;-68
2023/12/26 07:45:40;;;;;;;12.68;2.13;;;;;;;9.95;71.39;100644.31;7386343;19;20362;-68
2023/12/26 07:48:08;;;;;;;10.80;1.65;;;;;;;9.98;71.25;100644.09;7386046;19;20706;-69
2023/12/26 07:50:36;;;;;;;9.35;2.00;;;;;;;9.95;71.29;100646.13;7387389;19;20420;-69
2023/12/26 07:53:04;;;;;;;11.38;1.95;;;;;;;9.99;71.52;100663.47;7387731;19;20666;-69
2023/12/26 07:55:32;;;;;;;12.13;2.10;;;;;;;9.88;71.85;100655.47;7388322;19;20038;-69
2023/12/26 07:58:00;;;;;;;13.85;1.95;;;;;;;9.86;72.01;100662.69;7387584;19;20036;-68
2023/12/26 08:00:29;;;;;;;11.20;2.05;;;;;;;9.81;72.02;100670.09;7383835;19;20018;-68
2023/12/26 08:02:57;;;;;;;8.73;1.63;;;;;;;9.89;72.31;100681.81;7387220;19;20397;-67
2023/12/26 08:05:25;;;;;;;14.07;1.75;;;;;;;9.86;72.75;100694.41;7386668;19;20022;-67
2023/12/26 08:07:53;;;;;;;14.48;1.83;;;;;;;9.95;72.74;100686.66;7386368;19;20024;-67
2023/12/26 08:10:25;;;;;;;11.65;1.80;;;;;;;9.95;72.74;100699.88;7383645;19;20025;-67
2023/12/26 08:12:53;;;;;;;11.30;1.67;;;;;;;9.98;72.96;100698.81;7386268;19;20023;-69
2023/12/26 08:15:21;;;;;;;10.85;2.00;;;;;;;9.99;72.82;100701.34;7386551;19;20041;-68
2023/12/26 08:17:51;;;;;;;10.88;1.80;;;;;;;9.94;73.16;100708.78;7383081;19;20019;-68
2023/12/26 08:20:19;;;;;;;7.95;1.83;;;;;;;9.86;73.60;100720.88;7386114;19;20026;-68
2023/12/26 08:22:46;;;;;;;14.27;1.70;;;;;;;9.88;73.23;100725.09;7394089;19;20015;-68
2023/12/26 08:25:14;;;;;;;7.75;1.70;;;;;;;9.98;72.88;100709.41;7394158;19;20347;-68
2023/12/26 08:27:45;;;;;;;11.73;1.75;;;;;;;9.98;73.15;100719.97;7393544;19;20096;-68
2023/12/26 08:30:14;;;;;;;12.43;1.92;;;;;;;10.01;72.76;100731.19;7390106;19;20765;-68
2023/12/26 08:32:42;;;;;;;10.20;1.55;;;;;;;10.05;72.97;100729.16;7392524;19;20453;-69
2023/12/26 08:35:10;;;;;;;12.10;2.13;;;;;;;10.07;72.61;100726.41;7392788;19;20086;-68
2023/12/26 08:37:38;;;;;;;5.95;1.35;;;;;;;10.03;72.41;100749.59;7390963;19;20104;-68
2023/12/26 08:40:06;;;;;;;12.48;2.00;;;;;;;10.01;72.69;100730.34;7389510;19;20439;-70
2023/12/26 08:42:34;;;;;;;10.27;1.52;;;;;;;10.13;72.32;100736.56;7393146;19;20018;-68
2023/12/26 08:45:02;;;;;;;11.50;1.63;;;;;;;10.04;72.61;100746.00;7393171;19;20021;-67
2023/12/26 08:47:30;;;;;;;15.75;2.10;;;;;;;10.03;72.57;100749.59;7392831;19;20483;-69
2023/12/26 08:49:59;;;;;;;9.77;1.80;;;;;;;10.05;72.95;100752.97;7390340;19;20500;-69
2023/12/26 08:52:28;;;;;;;13.02;2.20;;;;;;;10.10;72.70;100758.78;7393130;19;20018;-69
2023/12/26 08:54:59;;;;;;;11.25;1.58;;;;;;;10.10;72.64;100768.53;7393050;19;20613;-68
2023/12/26 08:57:27;;;;;;;9.32;1.85;;;;;;;10.11;72.14;100778.13;7390901;19;20768;-68
2023/12/26 08:59:55;;;;;;;7.43;1.60;;;;;;;10.12;72.28;100783.34;7390192;19;20478;-69
2023/12/26 09:02:22;;;;;;;9.75;1.58;;;;;;;10.08;72.28;100776.56;7392490;19;20082;-69
2023/12/26 09:04:50;;;;;;;10.07;1.65;;;;;;;10.13;72.10;100773.59;7392626;19;20022;-68
2023/12/26 09:07:18;;;;;;;10.30;1.75;;;;;;;10.10;71.42;100785.22;7392567;19;20014;-70
2023/12/26 09:09:46;;;;;;;11.90;1.50;;;;;;;10.18;72.04;100788.19;7390622;19;20442;-69
2023/12/26 09:12:14;;;;;;;6.93;1.63;;;;;;;10.19;71.87;100802.28;7392465;19;20015;-69
2023/12/26 09:14:42;;;;;;;11.98;1.80;;;;;;;10.16;72.12;100795.41;7392512;19;20080;-68
2023/12/26 09:17:10;;;;;;;7.20;1.55;;;;;;;10.25;71.88;100800.06;7390901;19;20014;-69
2023/12/26 09:19:38;;;;;;;10.90;2.30;;;;;;;10.21;71.54;100793.25;7388765;19;20027;-69
2023/12/26 09:22:06;;;;;;;8.05;1.77;;;;;;;10.09;71.96;100809.16;7393777;19;20029;-68
2023/12/26 09:24:34;;;;;;;9.70;2.08;;;;;;;10.17;71.64;100825.34;7392075;19;20019;-68
2023/12/26 09:27:02;;;;;;;11.55;2.13;;;;;;;10.18;72.09;100819.09;7392073;19;20038;-68
2023/12/26 09:29:30;;;;;;;9.20;1.80;;;;;;;10.17;71.65;100825.34;7390693;19;20148;-69
2023/12/26 09:31:58;;;;;;;10.23;2.10;;;;;;;10.22;71.66;100841.72;7389774;19;20022;-70
2023/12/26 09:34:26;;;;;;;8.07;1.65;;;;;;;10.24;71.50;100839.84;7390112;19;20019;-70
2023/12/26 09:36:54;;;;;;;10.88;1.77;;;;;;;10.35;71.16;100841.75;7391196;19;20019;-70
2023/12/26 09:39:21;;;;;;;9.52;1.90;;;;;;;10.27;71.46;100842.31;7390743;19;20455;-70
2023/12/26 09:41:54;;;;;;;11.02;1.90;;;;;;;10.32;70.79;100850.75;7394140;19;20015;-70
2023/12/26 09:44:22;;;;;;;10.00;1.97;;;;;;;10.18;71.03;100862.28;7391370;19;20046;-70
2023/12/26 09:46:51;;;;;;;9.20;1.90;;;;;;;10.25;71.12;100854.78;7391177;19;20310;-68
2023/12/26 09:49:20;;;;;;;17.42;2.25;;;;;;;10.28;71.00;100848.44;7389262;19;20112;-69
2023/12/26 09:51:56;;;;;;;12.65;1.88;;;;;;;10.37;70.77;100851.25;7390643;19;20443;-69
2023/12/26 09:54:27;;;;;;;11.15;2.25;;;;;;;10.40;70.92;100852.84;7390406;19;20023;-68
2023/12/26 09:56:55;;;;;;;8.65;1.73;;;;;;;10.32;70.82;100869.28;7389842;19;20035;-69
2023/12/26 09:59:26;;;;;;;12.85;2.03;;;;;;;10.34;70.63;100877.97;7387848;19;20024;-69
2023/12/26 10:01:54;;;;;;;9.63;1.90;;;;;;;10.29;70.54;100868.66;7390670;19;20081;-70
2023/12/26 10:04:22;;;;;;;13.20;1.98;;;;;;;10.38;70.56;100870.63;7390373;19;20189;-69
2023/12/26 10:06:50;;;;;;;9.10;1.73;;;;;;;10.45;70.22;100883.38;7390171;19;20058;-69
2023/12/26 10:09:19;;;;;;;14.48;2.13;;;;;;;10.45;70.02;100874.53;7388316;19;20014;-69
2023/12/26 10:11:47;;;;;;;12.20;2.17;;;;;;;10.47;69.65;100891.19;7388429;19;20377;-69
2023/12/26 10:14:30;;;;;;;13.80;1.88;;;;;;;10.43;69.53;100889.72;7390042;19;20018;-68
2023/12/26 10:16:58;;;;;;;12.32;2.75;;;;;;;10.38;69.65;100903.28;7390214;19;20542;-69
2023/12/26 10:19:26;;;;;;;12.43;2.33;;;;;;;10.47;69.39;100901.78;7388602;19;20042;-69
2023/12/26 10:21:55;;;;;;;11.88;2.03;;;;;;;10.46;69.57;100908.88;7390795;19;20439;-69
2023/12/26 10:24:23;;;;;;;12.35;2.13;;;;;;;10.37;69.36;100884.84;7390688;19;20034;-66
2023/12/26 10:26:51;;;;;;;9.50;1.70;;;;;;;10.37;69.78;100909.50;7389662;19;20078;-68
2023/12/26 10:29:19;;;;;;;10.85;1.65;;;;;;;10.42;70.02;100923.28;7387629;19;20470;-69
2023/12/26 10:31:47;;;;;;;9.05;2.03;;;;;;;10.36;69.95;100915.75;7389872;19;20018;-69
2023/12/26 10:34:17;;;;;;;12.55;2.28;;;;;;;10.34;70.11;100915.03;7387211;19;20015;-69
2023/12/26 10:36:50;;;;;;;9.80;2.15;;;;;;;10.44;69.79;100923.16;7388172;19;20337;-69
2023/12/26 10:39:18;;;;;;;9.98;1.90;;;;;;;10.35;70.16;100924.66;7388273;19;20022;-69
2023/12/26 10:41:48;;;;;;;10.80;1.65;;;;;;;10.40;70.18;100916.38;7389616;19;20046;-71
2023/12/26 10:44:17;;;;;;;11.57;2.08;;;;;;;10.37;70.08;100930.69;7387715;19;20781;-71
2023/12/26 10:46:45;;;;;;;12.60;2.10;;;;;;;10.32;70.02;100926.69;7389854;19;20039;-70
2023/12/26 10:49:25;;;;;;;12.45;2.30;;;;;;;10.38;69.89;100943.00;7387231;19;20538;-69
2023/12/26 10:51:59;;;;;;;10.73;2.03;;;;;;;10.28;70.18;100944.56;7389215;19;20365;-74
2023/12/26 10:54:28;;;;;;;;;;;;;;;10.16;70.42;100940.94;7388866;19;20018;-69
2023/12/26 10:56:58;;;;;;;12.75;2.22;;;;;;;10.23;71.17;100928.13;7386949;19;20340;-69
2023/12/26 13:53:57;;;;;;;12.30;2.13;;;;;;;10.51;68.13;101104.47;7391347;19;20022;-71
2023/12/26 13:57:03;;;;;;;10.27;1.83;;;;;;;10.35;68.52;101102.03;7390654;19;20035;-71
2023/12/26 14:00:08;;;;;;;10.80;1.80;;;;;;;10.30;68.79;101113.84;7388318;19;20019;-69
2023/12/26 14:03:14;;;;;;;8.98;1.60;;;;;;;10.18;68.25;101113.69;7391519;19;20345;-71
2023/12/26 14:06:20;;;;;;;7.35;1.52;;;;;;;10.16;68.71;101131.47;7391945;19;20034;-71
2023/12/26 14:09:25;;;;;;;11.13;1.80;;;;;;;10.08;69.09;101119.72;7389897;19;20022;-71
2023/12/26 14:12:30;;;;;;;7.57;1.50;;;;;;;10.12;68.99;101121.22;7392088;19;20018;-70
2023/12/26 14:15:36;;;;;;;9.70;1.55;;;;;;;10.15;69.00;101128.91;7392195;19;20014;-70
2023/12/26 14:18:41;;;;;;;8.10;1.55;;;;;;;10.12;69.21;101129.16;7388411;19;20015;-70
2023/12/26 14:21:47;;;;;;;8.98;1.80;;;;;;;10.09;69.57;101135.47;7389002;19;20022;-72
2023/12/26 14:24:52;;;;;;;8.57;1.63;;;;;;;10.05;69.98;101141.91;7390792;19;20015;-71
2023/12/26 14:27:58;;;;;;;7.63;1.90;;;;;;;10.10;70.28;101155.69;7391244;19;20039;-71
2023/12/26 14:31:03;;;;;;;12.07;1.70;;;;;;;10.04;70.73;101157.91;7389144;19;20039;-71